Skip to content
You are here: Gozo Weather
Gozo Weather Station for the very latest live weather conditions from Gozo and Malta
 
 TIME   TEMPERATURE   WINDSPEED   DIRECTION   HUMIDITY   BAROMETER   RAINFALL 
1:40 23.9°C (75.0°F) 20.4 kmh (12.7 mph) NNW 66% 1014.0hPa (29.94 inHg) 0.0mm (0.00 in.)
12:40 24.0°C (75.2 °F) 14.8 kmh (9.2 mph) NW 65% 1014.0hPa (29.94 inHg) 0.0mm (0.00 in.)
11:40 23.8°C (74.8 °F) 11.1 kmh (6.9 mph) N 65% 1014.0hPa (29.94 inHg) 0.0mm (0.00 in.)
10:40 23.8°C (74.8 °F) 11.1 kmh (6.9 mph) N 63% 1014.0hPa (29.94 inHg) 0.0mm (0.00 in.)
9:40 24.6°C (76.3 °F) 14.8 kmh (9.2 mph) WNW 60% 1014.0hPa (29.94 inHg) 0.0mm (0.00 in.)
8:40 25.1°C (77.2 °F) 16.7 kmh (10.4 mph) NNW 58% 1014.0hPa (29.94 inHg) 0.0mm (0.00 in.)
7:40 25.4°C (77.7 °F) 14.8 kmh (9.2 mph) NNE 56% 1013.0hPa (29.91 inHg) 0.0mm (0.00 in.)
6:40 26.0°C (78.8 °F) 20.4 kmh (12.7 mph) N 53% 1013.0hPa (29.91 inHg) 0.0mm (0.00 in.)
5:40 26.3°C (79.3 °F) 16.7 kmh (10.4 mph) NNW 52% 1013.0hPa (29.91 inHg) 0.0mm (0.00 in.)
4:40 26.6°C (79.9 °F) 14.8 kmh (9.2 mph) NNE 52% 1012.0hPa (29.88 inHg) 0.0mm (0.00 in.)
3:40 26.7°C (80.1 °F) 16.7 kmh (10.4 mph) NNE 51% 1013.0hPa (29.91 inHg) 0.0mm (0.00 in.)
2:40 27.0°C (80.6 °F) 18.5 kmh (11.5 mph) NW 52% 1013.0hPa (29.91 inHg) 0.0mm (0.00 in.)
1:40 26.7°C (80.1 °F) 14.8 kmh (9.2 mph) S 52% 1013.0hPa (29.91 inHg) 0.0mm (0.00 in.)
12:33 26.5°C (79.7 °F) 25.9 kmh (16.1 mph) NNW 53% 1013.0hPa (29.91 inHg) 0.0mm (0.00 in.)
11:33 26.2°C (79.2 °F) 24.1 kmh (15.0 mph) SSE 54% 1013.0hPa (29.91 inHg) 0.0mm (0.00 in.)
10:33 25.2°C (77.4 °F) 22.2 kmh (13.8 mph) WSW 55% 1013.0hPa (29.91 inHg) 0.0mm (0.00 in.)
9:33 25.0°C (77.0 °F) 22.2 kmh (13.8 mph) W 58% 1013.0hPa (29.91 inHg) 0.0mm (0.00 in.)
8:33 24.3°C (75.7 °F) 24.1 kmh (15.0 mph) NNW 60% 1013.0hPa (29.91 inHg) 0.0mm (0.00 in.)
7:33 23.4°C (74.1 °F) 22.2 kmh (13.8 mph) NNW 59% 1012.0hPa (29.88 inHg) 0.0mm (0.00 in.)
6:33 22.8°C (73.0 °F) 14.8 kmh (9.2 mph) ESE 61% 1012.0hPa (29.88 inHg) 0.0mm (0.00 in.)
5:33 22.7°C (72.9 °F) 18.5 kmh (11.5 mph) N 65% 1012.0hPa (29.88 inHg) 0.0mm (0.00 in.)
4:33 22.0°C (71.6 °F) 18.5 kmh (11.5 mph) NE 63% 1011.0hPa (29.85 inHg) 0.0mm (0.00 in.)
3:33 23.5°C (74.3 °F) 20.4 kmh (12.7 mph) NNE 61% 1012.0hPa (29.88 inHg) 0.0mm (0.00 in.)
2:33 23.3°C (73.9 °F) 16.7 kmh (10.4 mph) SE 58% 1013.0hPa (29.91 inHg) 0.0mm (0.00 in.)

You need the latest version of Flash Player to view some of our content.


Why not download and install the latest version now?
It will only take you a moment and will ensure that you can view all the latest flash designed websites.

Translate this page

Animated Satellite

Click per aprire http://www.gozo.ws/Animation.php
copyright 2016 EUMETSAT

European Lightning Activity


Please click image for full size

Sponsored Links